This is the latest recevied weather packets stored in our database for station/object KO4IEJ. If no packets are shown the sender has not sent any weather packets the latest 10 day(s).
| Time | Temp. | Humidity | Pressure | Rain* | Wind** | Luminosity | Snow |
|---|---|---|---|---|---|---|---|
| 1777519861 | 2.22° C | 88% | 1021.3 hPa | 0.76 mm | - | - | - |
| 1777518064 | 3.33° C | 84% | 1020.9 hPa | 0 mm | - | - | - |
| 1777517157 | 3.89° C | 81% | 1020.7 hPa | 0 mm | - | - | - |
| 1777502774 | 8.33° C | 49% | 1018.3 hPa | 0 mm | - | - | - |
| 1777498253 | 9.44° C | 46% | 1018.4 hPa | 0 mm | - | - | - |
| 1777497357 | 9.44° C | 47% | 1018.5 hPa | 0 mm | - | - | - |
| 1777496453 | 11.11° C | 45% | 1018.8 hPa | 0 mm | - | - | - |
| 1777494655 | 12.22° C | 33% | 1018.3 hPa | 0 mm | - | - | - |
| 1777487467 | 8.33° C | 46% | 1018.9 hPa | 0 mm | - | - | - |
| 1777486564 | 7.22° C | 54% | 1019.6 hPa | 0 mm | - | - | - |
| 1777485664 | 8.33° C | 54% | 1019.5 hPa | 0 mm | - | - | - |
| 1777468551 | 0° C | 87% | 1021.4 hPa | 0 mm | - | - | - |
| 1777456863 | -0.56° C | 86% | 1021.5 hPa | 0 mm | - | - | - |
| 1777453252 | 0° C | 84% | 1021.6 hPa | 0 mm | - | - | - |
| 1777452353 | 0° C | 84% | 1021.7 hPa | 0 mm | - | - | - |
| 1777444257 | 2.78° C | 72% | 1022.2 hPa | 0 mm | - | - | - |
| 1777440653 | 2.22° C | 67% | 1022.1 hPa | 0 mm | - | - | - |
| 1777434353 | 2.78° C | 62% | 1022.1 hPa | 0 mm | - | - | - |
| 1777429856 | 4.44° C | 54% | 1021.1 hPa | 0 mm | - | - | - |
| 1777427154 | 7.22° C | 47% | 1020.2 hPa | 0 mm | - | - | - |
| 1777421767 | 12.22° C | 25% | 1018.1 hPa | 0 mm | - | - | - |
| 1777419065 | 13.89° C | 22% | 1017.9 hPa | 0 mm | - | - | - |
| 1777418157 | 13.89° C | 22% | 1017.5 hPa | 0 mm | - | - | - |
| 1777417256 | 13.33° C | 22% | 1017.3 hPa | 0 mm | - | - | - |
| 1777413652 | 12.78° C | 24% | 1017.2 hPa | 0 mm | - | - | - |
* Rain latest hour (hover to see other rain measurements)
** Current wind speed in m/s (hover to see current wind gust speed)